aviador You're here:

MMHO Decoded Metar

HERMOSILLO in MEXICO
Report Time2017-09-23 19:44:00
UTC Time2017-09-23 20:07:36
Flight Rules vfr VFR
Wind240° at 11 kt
W.Decomp.*RWY 23: 11.0 kt HW 0 kt LCW
RWY 29: 5.5 kt HW 9.5 kt LCW
W.Rank240° ranks 7
Current wind is above 240° avg. (6.7)
Visibility9999 m
Phenomena:N/A
Clouds:N/A
Expected CloudBase > 8,000 ft AGL from Temp-Dew spread
CeilingNone
Temp33°C (ISA +19)
Dew Point13°C (30% RH)
Heat Index32.0°C
AAT30.0°C
QNH1007 hPa
Density Alt3,192 ft
Elevation604 ft
Report Wrong Elevation
Raw Report
METAR MMHO 231944Z 24011KT 10SM SKC 33/13 A2974 RMK ISOL CU/SC HZY=

Extra information for MMHO:More info

Metar Taf Metar & Taf Last 4 Metars F.Rules Stats Wind Profile Meteogram Temp Stats Airport Information Weather charts Add Link Nearby VenuesMetar ALERT Operation Metar Decoded Social comments